Dutton, Virginia
Current Conditions -  °F | °C
As of 9:55 PM on Thursday 27 Nov 2014 (Local Time) from KW75 Reporting Station
Overcast Overcast  
Wind Chill: 33°   Ceiling: 7000
Heat Index: 40°   Visibility: 10mi
Dew Point: 31°   Wind: 12mph
Humidity: 69%   Direction: 330°NNW
Pressure: 30.17"   Gusts: 21mph
Location:  37.5°N, 76.46°W
Report Text: KW75 280255Z AUTO 33010G18KT 10SM OVC070 05/M01 A3017 RMK AO1 T00451008
Loading
Personal Weather Stations






























Interactive Weather Map New forecast layout! Learn more

10-Day Weather Forecast

Advertisements
Track Severe Weather on mobile